<?xml version="1.0" encoding="UTF-8" standalone="no" ?>
<gpx xmlns="http://www.topografix.com/GPX/1/1" xmlns:xsi="http://www.w3.org/2001/XMLSchema-instance" xsi:schemaLocation="http://www.topografix.com/GPX/1/1 http://www.topografix.com/GPX/1/1/gpx.xsd" version="1.1" creator="VisuGPX - https://www.visugpx.com">
  <metadata>
    <name>2024-05-16-46-gigouzac</name>
    <desc><![CDATA[circuit de 10km pour environ 200m de dénivelé positif. un départ en plat le long du ruisseau avant d'attaquer les quelques dénivelés sur des sentiers sous les bois, de belles bâtisses en pierre et quelques puits sur le parcours]]></desc>
  </metadata>
  <trk>
    <name><![CDATA[2024-05-16-Gigouzac-10,5 km, 195m-18985539]]></name>
    <trkseg>
      <trkpt lat="44.5821" lon="1.4334">
        <ele>235</ele>
        <time>2024-05-14T13:34:08Z</time>
      </trkpt>
      <trkpt lat="44.58228" lon="1.43353">
        <ele>235</ele>
        <time>2024-05-14T13:34:35Z</time>
      </trkpt>
      <trkpt lat="44.58232" lon="1.43342">
        <ele>234</ele>
        <time>2024-05-14T13:34:47Z</time>
      </trkpt>
      <trkpt lat="44.58214" lon="1.43319">
        <ele>234</ele>
        <time>2024-05-14T13:35:19Z</time>
      </trkpt>
      <trkpt lat="44.58193" lon="1.43277">
        <ele>233</ele>
        <time>2024-05-14T13:36:08Z</time>
      </trkpt>
      <trkpt lat="44.58108" lon="1.43128">
        <ele>230</ele>
        <time>2024-05-14T13:39:09Z</time>
      </trkpt>
      <trkpt lat="44.58088" lon="1.43075">
        <ele>229</ele>
        <time>2024-05-14T13:40:06Z</time>
      </trkpt>
      <trkpt lat="44.58059" lon="1.43022">
        <ele>228</ele>
        <time>2024-05-14T13:41:10Z</time>
      </trkpt>
      <trkpt lat="44.58007" lon="1.42967">
        <ele>228</ele>
        <time>2024-05-14T13:42:37Z</time>
      </trkpt>
      <trkpt lat="44.57906" lon="1.42871">
        <ele>226</ele>
        <time>2024-05-14T13:45:20Z</time>
      </trkpt>
      <trkpt lat="44.57862" lon="1.42832">
        <ele>226</ele>
        <time>2024-05-14T13:46:29Z</time>
      </trkpt>
      <trkpt lat="44.57826" lon="1.42807">
        <ele>226</ele>
        <time>2024-05-14T13:47:23Z</time>
      </trkpt>
      <trkpt lat="44.57794" lon="1.42773">
        <ele>226</ele>
        <time>2024-05-14T13:48:16Z</time>
      </trkpt>
      <trkpt lat="44.5778" lon="1.4274">
        <ele>225</ele>
        <time>2024-05-14T13:48:53Z</time>
      </trkpt>
      <trkpt lat="44.57758" lon="1.42724">
        <ele>224</ele>
        <time>2024-05-14T13:49:26Z</time>
      </trkpt>
      <trkpt lat="44.57747" lon="1.42675">
        <ele>223</ele>
        <time>2024-05-14T13:50:15Z</time>
      </trkpt>
      <trkpt lat="44.57724" lon="1.42625">
        <ele>223</ele>
        <time>2024-05-14T13:51:11Z</time>
      </trkpt>
      <trkpt lat="44.57666" lon="1.42519">
        <ele>223</ele>
        <time>2024-05-14T13:53:18Z</time>
      </trkpt>
      <trkpt lat="44.57649" lon="1.4247">
        <ele>223</ele>
        <time>2024-05-14T13:54:10Z</time>
      </trkpt>
      <trkpt lat="44.57618" lon="1.42432">
        <ele>223</ele>
        <time>2024-05-14T13:55:05Z</time>
      </trkpt>
      <trkpt lat="44.57551" lon="1.42331">
        <ele>222</ele>
        <time>2024-05-14T13:57:16Z</time>
      </trkpt>
      <trkpt lat="44.57517" lon="1.42272">
        <ele>222</ele>
        <time>2024-05-14T13:58:28Z</time>
      </trkpt>
      <trkpt lat="44.57496" lon="1.42227">
        <ele>222</ele>
        <time>2024-05-14T13:59:19Z</time>
      </trkpt>
      <trkpt lat="44.57421" lon="1.42077">
        <ele>220</ele>
        <time>2024-05-14T14:02:14Z</time>
      </trkpt>
      <trkpt lat="44.57401" lon="1.42046">
        <ele>220</ele>
        <time>2024-05-14T14:02:53Z</time>
      </trkpt>
      <trkpt lat="44.57369" lon="1.4202">
        <ele>220</ele>
        <time>2024-05-14T14:03:43Z</time>
      </trkpt>
      <trkpt lat="44.57315" lon="1.4198">
        <ele>220</ele>
        <time>2024-05-14T14:05:04Z</time>
      </trkpt>
      <trkpt lat="44.57179" lon="1.41907">
        <ele>220</ele>
        <time>2024-05-14T14:08:19Z</time>
      </trkpt>
      <trkpt lat="44.57066" lon="1.41884">
        <ele>225</ele>
        <time>2024-05-14T14:10:51Z</time>
      </trkpt>
      <trkpt lat="44.56993" lon="1.41901">
        <ele>228</ele>
        <time>2024-05-14T14:12:30Z</time>
      </trkpt>
      <trkpt lat="44.56976" lon="1.41885">
        <ele>228</ele>
        <time>2024-05-14T14:12:57Z</time>
      </trkpt>
      <trkpt lat="44.57011" lon="1.41845">
        <ele>224</ele>
        <time>2024-05-14T14:13:57Z</time>
      </trkpt>
      <trkpt lat="44.57022" lon="1.41801">
        <ele>222</ele>
        <time>2024-05-14T14:14:42Z</time>
      </trkpt>
      <trkpt lat="44.57013" lon="1.41758">
        <ele>221</ele>
        <time>2024-05-14T14:15:24Z</time>
      </trkpt>
      <trkpt lat="44.56984" lon="1.41701">
        <ele>220</ele>
        <time>2024-05-14T14:16:31Z</time>
      </trkpt>
      <trkpt lat="44.56897" lon="1.41581">
        <ele>220</ele>
        <time>2024-05-14T14:19:13Z</time>
      </trkpt>
      <trkpt lat="44.56855" lon="1.415">
        <ele>221</ele>
        <time>2024-05-14T14:20:49Z</time>
      </trkpt>
      <trkpt lat="44.56814" lon="1.41417">
        <ele>220</ele>
        <time>2024-05-14T14:22:25Z</time>
      </trkpt>
      <trkpt lat="44.56777" lon="1.41327">
        <ele>221</ele>
        <time>2024-05-14T14:24:04Z</time>
      </trkpt>
      <trkpt lat="44.56688" lon="1.41099">
        <ele>213</ele>
        <time>2024-05-14T14:28:11Z</time>
      </trkpt>
      <trkpt lat="44.56672" lon="1.41072">
        <ele>212</ele>
        <time>2024-05-14T14:28:44Z</time>
      </trkpt>
      <trkpt lat="44.56555" lon="1.41012">
        <ele>216</ele>
        <time>2024-05-14T14:31:30Z</time>
      </trkpt>
      <trkpt lat="44.56461" lon="1.40974">
        <ele>225</ele>
        <time>2024-05-14T14:33:41Z</time>
      </trkpt>
      <trkpt lat="44.56414" lon="1.40923">
        <ele>223</ele>
        <time>2024-05-14T14:35:00Z</time>
      </trkpt>
      <trkpt lat="44.56338" lon="1.40792">
        <ele>218</ele>
        <time>2024-05-14T14:37:41Z</time>
      </trkpt>
      <trkpt lat="44.56265" lon="1.40701">
        <ele>221</ele>
        <time>2024-05-14T14:39:51Z</time>
      </trkpt>
      <trkpt lat="44.56247" lon="1.40692">
        <ele>222</ele>
        <time>2024-05-14T14:40:17Z</time>
      </trkpt>
      <trkpt lat="44.56238" lon="1.40716">
        <ele>226</ele>
        <time>2024-05-14T14:40:42Z</time>
      </trkpt>
      <trkpt lat="44.5619" lon="1.40715">
        <ele>228</ele>
        <time>2024-05-14T14:41:46Z</time>
      </trkpt>
      <trkpt lat="44.56152" lon="1.40728">
        <ele>230</ele>
        <time>2024-05-14T14:42:39Z</time>
      </trkpt>
      <trkpt lat="44.56108" lon="1.40698">
        <ele>233</ele>
        <time>2024-05-14T14:43:44Z</time>
      </trkpt>
      <trkpt lat="44.56044" lon="1.4066">
        <ele>243</ele>
        <time>2024-05-14T14:45:17Z</time>
      </trkpt>
      <trkpt lat="44.56009" lon="1.4062">
        <ele>251</ele>
        <time>2024-05-14T14:46:17Z</time>
      </trkpt>
      <trkpt lat="44.5598" lon="1.40583">
        <ele>256</ele>
        <time>2024-05-14T14:47:09Z</time>
      </trkpt>
      <trkpt lat="44.55945" lon="1.40552">
        <ele>260</ele>
        <time>2024-05-14T14:48:04Z</time>
      </trkpt>
      <trkpt lat="44.55927" lon="1.40547">
        <ele>261</ele>
        <time>2024-05-14T14:48:29Z</time>
      </trkpt>
      <trkpt lat="44.55884" lon="1.40547">
        <ele>264</ele>
        <time>2024-05-14T14:49:26Z</time>
      </trkpt>
      <trkpt lat="44.55846" lon="1.40556">
        <ele>268</ele>
        <time>2024-05-14T14:50:18Z</time>
      </trkpt>
      <trkpt lat="44.55839" lon="1.40549">
        <ele>269</ele>
        <time>2024-05-14T14:50:29Z</time>
      </trkpt>
      <trkpt lat="44.55798" lon="1.40551">
        <ele>273</ele>
        <time>2024-05-14T14:51:24Z</time>
      </trkpt>
      <trkpt lat="44.5575" lon="1.40558">
        <ele>279</ele>
        <time>2024-05-14T14:52:28Z</time>
      </trkpt>
      <trkpt lat="44.55718" lon="1.40566">
        <ele>281</ele>
        <time>2024-05-14T14:53:12Z</time>
      </trkpt>
      <trkpt lat="44.55635" lon="1.40581">
        <ele>286</ele>
        <time>2024-05-14T14:55:03Z</time>
      </trkpt>
      <trkpt lat="44.55603" lon="1.40578">
        <ele>287</ele>
        <time>2024-05-14T14:55:46Z</time>
      </trkpt>
      <trkpt lat="44.55383" lon="1.40485">
        <ele>283</ele>
        <time>2024-05-14T15:00:53Z</time>
      </trkpt>
      <trkpt lat="44.5547" lon="1.40647">
        <ele>297</ele>
        <time>2024-05-14T15:04:06Z</time>
      </trkpt>
      <trkpt lat="44.55516" lon="1.40699">
        <ele>300</ele>
        <time>2024-05-14T15:05:24Z</time>
      </trkpt>
      <trkpt lat="44.55565" lon="1.4087">
        <ele>305</ele>
        <time>2024-05-14T15:08:20Z</time>
      </trkpt>
      <trkpt lat="44.55575" lon="1.40922">
        <ele>304</ele>
        <time>2024-05-14T15:09:11Z</time>
      </trkpt>
      <trkpt lat="44.5564" lon="1.41148">
        <ele>287</ele>
        <time>2024-05-14T15:13:03Z</time>
      </trkpt>
      <trkpt lat="44.55652" lon="1.41211">
        <ele>286</ele>
        <time>2024-05-14T15:14:05Z</time>
      </trkpt>
      <trkpt lat="44.55552" lon="1.41237">
        <ele>283</ele>
        <time>2024-05-14T15:16:20Z</time>
      </trkpt>
      <trkpt lat="44.55412" lon="1.41156">
        <ele>278</ele>
        <time>2024-05-14T15:19:42Z</time>
      </trkpt>
      <trkpt lat="44.55411" lon="1.41229">
        <ele>276</ele>
        <time>2024-05-14T15:20:52Z</time>
      </trkpt>
      <trkpt lat="44.55428" lon="1.4129">
        <ele>274</ele>
        <time>2024-05-14T15:21:54Z</time>
      </trkpt>
      <trkpt lat="44.5547" lon="1.41344">
        <ele>273</ele>
        <time>2024-05-14T15:23:10Z</time>
      </trkpt>
      <trkpt lat="44.55527" lon="1.41375">
        <ele>275</ele>
        <time>2024-05-14T15:24:32Z</time>
      </trkpt>
      <trkpt lat="44.55546" lon="1.41402">
        <ele>274</ele>
        <time>2024-05-14T15:25:08Z</time>
      </trkpt>
      <trkpt lat="44.55621" lon="1.4159">
        <ele>273</ele>
        <time>2024-05-14T15:28:33Z</time>
      </trkpt>
      <trkpt lat="44.55667" lon="1.41679">
        <ele>273</ele>
        <time>2024-05-14T15:30:17Z</time>
      </trkpt>
      <trkpt lat="44.55778" lon="1.41838">
        <ele>289</ele>
        <time>2024-05-14T15:33:49Z</time>
      </trkpt>
      <trkpt lat="44.55798" lon="1.41856">
        <ele>293</ele>
        <time>2024-05-14T15:34:21Z</time>
      </trkpt>
      <trkpt lat="44.55819" lon="1.41902">
        <ele>297</ele>
        <time>2024-05-14T15:35:13Z</time>
      </trkpt>
      <trkpt lat="44.55857" lon="1.41953">
        <ele>304</ele>
        <time>2024-05-14T15:36:23Z</time>
      </trkpt>
      <trkpt lat="44.55889" lon="1.41984">
        <ele>307</ele>
        <time>2024-05-14T15:37:15Z</time>
      </trkpt>
      <trkpt lat="44.55908" lon="1.4202">
        <ele>310</ele>
        <time>2024-05-14T15:37:57Z</time>
      </trkpt>
      <trkpt lat="44.55929" lon="1.42047">
        <ele>313</ele>
        <time>2024-05-14T15:38:35Z</time>
      </trkpt>
      <trkpt lat="44.55967" lon="1.42081">
        <ele>316</ele>
        <time>2024-05-14T15:39:35Z</time>
      </trkpt>
      <trkpt lat="44.55978" lon="1.421">
        <ele>318</ele>
        <time>2024-05-14T15:39:59Z</time>
      </trkpt>
      <trkpt lat="44.55989" lon="1.42127">
        <ele>320</ele>
        <time>2024-05-14T15:40:28Z</time>
      </trkpt>
      <trkpt lat="44.5606" lon="1.42146">
        <ele>318</ele>
        <time>2024-05-14T15:42:05Z</time>
      </trkpt>
      <trkpt lat="44.5612" lon="1.42315">
        <ele>307</ele>
        <time>2024-05-14T15:45:04Z</time>
      </trkpt>
      <trkpt lat="44.56147" lon="1.42438">
        <ele>304</ele>
        <time>2024-05-14T15:47:07Z</time>
      </trkpt>
      <trkpt lat="44.562" lon="1.42565">
        <ele>303</ele>
        <time>2024-05-14T15:49:27Z</time>
      </trkpt>
      <trkpt lat="44.56231" lon="1.42615">
        <ele>302</ele>
        <time>2024-05-14T15:50:30Z</time>
      </trkpt>
      <trkpt lat="44.56257" lon="1.42691">
        <ele>302</ele>
        <time>2024-05-14T15:51:50Z</time>
      </trkpt>
      <trkpt lat="44.56285" lon="1.42759">
        <ele>298</ele>
        <time>2024-05-14T15:53:04Z</time>
      </trkpt>
      <trkpt lat="44.56408" lon="1.42854">
        <ele>299</ele>
        <time>2024-05-14T15:56:12Z</time>
      </trkpt>
      <trkpt lat="44.56489" lon="1.42932">
        <ele>298</ele>
        <time>2024-05-14T15:58:23Z</time>
      </trkpt>
      <trkpt lat="44.56543" lon="1.42979">
        <ele>296</ele>
        <time>2024-05-14T15:59:48Z</time>
      </trkpt>
      <trkpt lat="44.56592" lon="1.42999">
        <ele>291</ele>
        <time>2024-05-14T16:00:56Z</time>
      </trkpt>
      <trkpt lat="44.56616" lon="1.43001">
        <ele>289</ele>
        <time>2024-05-14T16:01:28Z</time>
      </trkpt>
      <trkpt lat="44.56657" lon="1.42977">
        <ele>287</ele>
        <time>2024-05-14T16:02:27Z</time>
      </trkpt>
      <trkpt lat="44.56673" lon="1.42979">
        <ele>285</ele>
        <time>2024-05-14T16:02:49Z</time>
      </trkpt>
      <trkpt lat="44.56697" lon="1.42996">
        <ele>280</ele>
        <time>2024-05-14T16:03:24Z</time>
      </trkpt>
      <trkpt lat="44.56727" lon="1.42995">
        <ele>275</ele>
        <time>2024-05-14T16:04:04Z</time>
      </trkpt>
      <trkpt lat="44.56771" lon="1.42968">
        <ele>271</ele>
        <time>2024-05-14T16:05:09Z</time>
      </trkpt>
      <trkpt lat="44.56799" lon="1.42962">
        <ele>268</ele>
        <time>2024-05-14T16:05:46Z</time>
      </trkpt>
      <trkpt lat="44.56795" lon="1.42994">
        <ele>268</ele>
        <time>2024-05-14T16:06:17Z</time>
      </trkpt>
      <trkpt lat="44.56796" lon="1.4303">
        <ele>269</ele>
        <time>2024-05-14T16:06:51Z</time>
      </trkpt>
      <trkpt lat="44.56809" lon="1.43066">
        <ele>272</ele>
        <time>2024-05-14T16:07:30Z</time>
      </trkpt>
      <trkpt lat="44.56835" lon="1.43121">
        <ele>280</ele>
        <time>2024-05-14T16:08:33Z</time>
      </trkpt>
      <trkpt lat="44.56841" lon="1.43071">
        <ele>273</ele>
        <time>2024-05-14T16:09:21Z</time>
      </trkpt>
      <trkpt lat="44.56851" lon="1.43065">
        <ele>274</ele>
        <time>2024-05-14T16:09:35Z</time>
      </trkpt>
      <trkpt lat="44.5686" lon="1.43095">
        <ele>278</ele>
        <time>2024-05-14T16:10:06Z</time>
      </trkpt>
      <trkpt lat="44.56878" lon="1.43129">
        <ele>284</ele>
        <time>2024-05-14T16:10:47Z</time>
      </trkpt>
      <trkpt lat="44.56911" lon="1.4318">
        <ele>293</ele>
        <time>2024-05-14T16:11:52Z</time>
      </trkpt>
      <trkpt lat="44.56953" lon="1.4323">
        <ele>304</ele>
        <time>2024-05-14T16:13:06Z</time>
      </trkpt>
      <trkpt lat="44.57009" lon="1.43278">
        <ele>313</ele>
        <time>2024-05-14T16:14:33Z</time>
      </trkpt>
      <trkpt lat="44.57075" lon="1.43328">
        <ele>317</ele>
        <time>2024-05-14T16:16:13Z</time>
      </trkpt>
      <trkpt lat="44.57143" lon="1.43344">
        <ele>315</ele>
        <time>2024-05-14T16:17:45Z</time>
      </trkpt>
      <trkpt lat="44.57157" lon="1.43359">
        <ele>315</ele>
        <time>2024-05-14T16:18:09Z</time>
      </trkpt>
      <trkpt lat="44.57204" lon="1.43313">
        <ele>312</ele>
        <time>2024-05-14T16:19:25Z</time>
      </trkpt>
      <trkpt lat="44.57227" lon="1.43293">
        <ele>310</ele>
        <time>2024-05-14T16:20:01Z</time>
      </trkpt>
      <trkpt lat="44.5725" lon="1.43291">
        <ele>310</ele>
        <time>2024-05-14T16:20:32Z</time>
      </trkpt>
      <trkpt lat="44.57277" lon="1.4325">
        <ele>306</ele>
        <time>2024-05-14T16:21:25Z</time>
      </trkpt>
      <trkpt lat="44.57323" lon="1.43195">
        <ele>299</ele>
        <time>2024-05-14T16:22:46Z</time>
      </trkpt>
      <trkpt lat="44.57407" lon="1.43088">
        <ele>288</ele>
        <time>2024-05-14T16:25:17Z</time>
      </trkpt>
      <trkpt lat="44.57447" lon="1.4303">
        <ele>280</ele>
        <time>2024-05-14T16:26:34Z</time>
      </trkpt>
      <trkpt lat="44.57456" lon="1.43027">
        <ele>278</ele>
        <time>2024-05-14T16:26:46Z</time>
      </trkpt>
      <trkpt lat="44.5746" lon="1.43045">
        <ele>278</ele>
        <time>2024-05-14T16:27:04Z</time>
      </trkpt>
      <trkpt lat="44.57423" lon="1.43149">
        <ele>281</ele>
        <time>2024-05-14T16:28:55Z</time>
      </trkpt>
      <trkpt lat="44.57407" lon="1.43188">
        <ele>282</ele>
        <time>2024-05-14T16:29:37Z</time>
      </trkpt>
      <trkpt lat="44.57405" lon="1.43219">
        <ele>281</ele>
        <time>2024-05-14T16:30:07Z</time>
      </trkpt>
      <trkpt lat="44.57466" lon="1.43151">
        <ele>272</ele>
        <time>2024-05-14T16:31:51Z</time>
      </trkpt>
      <trkpt lat="44.57475" lon="1.4317">
        <ele>270</ele>
        <time>2024-05-14T16:32:13Z</time>
      </trkpt>
      <trkpt lat="44.57493" lon="1.43185">
        <ele>269</ele>
        <time>2024-05-14T16:32:41Z</time>
      </trkpt>
      <trkpt lat="44.57504" lon="1.43183">
        <ele>268</ele>
        <time>2024-05-14T16:32:55Z</time>
      </trkpt>
      <trkpt lat="44.57545" lon="1.43127">
        <ele>267</ele>
        <time>2024-05-14T16:34:12Z</time>
      </trkpt>
      <trkpt lat="44.57588" lon="1.43081">
        <ele>258</ele>
        <time>2024-05-14T16:35:24Z</time>
      </trkpt>
      <trkpt lat="44.57627" lon="1.43029">
        <ele>253</ele>
        <time>2024-05-14T16:36:36Z</time>
      </trkpt>
      <trkpt lat="44.57637" lon="1.43">
        <ele>248</ele>
        <time>2024-05-14T16:37:06Z</time>
      </trkpt>
      <trkpt lat="44.57676" lon="1.42908">
        <ele>237</ele>
        <time>2024-05-14T16:38:48Z</time>
      </trkpt>
      <trkpt lat="44.57698" lon="1.42861">
        <ele>233</ele>
        <time>2024-05-14T16:39:41Z</time>
      </trkpt>
      <trkpt lat="44.57748" lon="1.42845">
        <ele>230</ele>
        <time>2024-05-14T16:40:50Z</time>
      </trkpt>
      <trkpt lat="44.57794" lon="1.42866">
        <ele>229</ele>
        <time>2024-05-14T16:41:54Z</time>
      </trkpt>
      <trkpt lat="44.57829" lon="1.42889">
        <ele>228</ele>
        <time>2024-05-14T16:42:46Z</time>
      </trkpt>
      <trkpt lat="44.5787" lon="1.42842">
        <ele>226</ele>
        <time>2024-05-14T16:43:57Z</time>
      </trkpt>
      <trkpt lat="44.5796" lon="1.42924">
        <ele>228</ele>
        <time>2024-05-14T16:46:20Z</time>
      </trkpt>
      <trkpt lat="44.58013" lon="1.42976">
        <ele>228</ele>
        <time>2024-05-14T16:47:46Z</time>
      </trkpt>
      <trkpt lat="44.58061" lon="1.43028">
        <ele>229</ele>
        <time>2024-05-14T16:49:07Z</time>
      </trkpt>
      <trkpt lat="44.58089" lon="1.43082">
        <ele>229</ele>
        <time>2024-05-14T16:50:10Z</time>
      </trkpt>
      <trkpt lat="44.58104" lon="1.43125">
        <ele>230</ele>
        <time>2024-05-14T16:50:56Z</time>
      </trkpt>
      <trkpt lat="44.58125" lon="1.4316">
        <ele>231</ele>
        <time>2024-05-14T16:51:39Z</time>
      </trkpt>
      <trkpt lat="44.58161" lon="1.43228">
        <ele>232</ele>
        <time>2024-05-14T16:53:00Z</time>
      </trkpt>
      <trkpt lat="44.58187" lon="1.43272">
        <ele>233</ele>
        <time>2024-05-14T16:53:54Z</time>
      </trkpt>
      <trkpt lat="44.58228" lon="1.43349">
        <ele>234</ele>
        <time>2024-05-14T16:55:26Z</time>
      </trkpt>
      <trkpt lat="44.5821" lon="1.4334">
        <ele>235</ele>
        <time>2024-05-14T16:55:51Z</time>
      </trkpt>
    </trkseg>
  </trk>
</gpx>